sensor_id;sensor_type;location;lat;lon;timestamp;P1;durP1;ratioP1;P2;durP2;ratioP2
64609;SDS011;51019;46.090;6.350;2023-08-06T00:01:03;7.88;;;2.10;;
64609;SDS011;51019;46.090;6.350;2023-08-06T00:03:30;7.60;;;2.00;;
64609;SDS011;51019;46.090;6.350;2023-08-06T00:05:58;7.68;;;1.98;;
64609;SDS011;51019;46.090;6.350;2023-08-06T00:08:28;7.55;;;2.03;;
64609;SDS011;51019;46.090;6.350;2023-08-06T00:10:57;8.23;;;2.10;;
64609;SDS011;51019;46.090;6.350;2023-08-06T00:13:24;7.88;;;1.95;;
64609;SDS011;51019;46.090;6.350;2023-08-06T00:15:52;7.53;;;1.90;;
64609;SDS011;51019;46.090;6.350;2023-08-06T00:18:19;6.80;;;2.10;;
64609;SDS011;51019;46.090;6.350;2023-08-06T00:20:47;7.82;;;2.15;;
64609;SDS011;51019;46.090;6.350;2023-08-06T00:23:15;7.80;;;2.33;;
64609;SDS011;51019;46.090;6.350;2023-08-06T00:25:43;7.10;;;2.00;;
64609;SDS011;51019;46.090;6.350;2023-08-06T00:28:12;7.20;;;2.05;;
64609;SDS011;51019;46.090;6.350;2023-08-06T00:30:40;9.45;;;2.33;;
64609;SDS011;51019;46.090;6.350;2023-08-06T00:33:08;8.18;;;2.00;;
64609;SDS011;51019;46.090;6.350;2023-08-06T00:35:36;8.93;;;2.17;;
64609;SDS011;51019;46.090;6.350;2023-08-06T00:38:05;8.10;;;2.10;;
64609;SDS011;51019;46.090;6.350;2023-08-06T00:40:33;8.88;;;2.13;;
64609;SDS011;51019;46.090;6.350;2023-08-06T00:43:00;10.13;;;2.30;;
64609;SDS011;51019;46.090;6.350;2023-08-06T00:45:29;9.15;;;2.20;;
64609;SDS011;51019;46.090;6.350;2023-08-06T00:48:00;8.63;;;2.00;;
64609;SDS011;51019;46.090;6.350;2023-08-06T00:50:28;9.95;;;2.00;;
64609;SDS011;51019;46.090;6.350;2023-08-06T00:52:55;9.10;;;2.33;;
64609;SDS011;51019;46.090;6.350;2023-08-06T00:55:23;7.13;;;1.92;;
64609;SDS011;51019;46.090;6.350;2023-08-06T00:57:51;8.80;;;1.88;;
64609;SDS011;51019;46.090;6.350;2023-08-06T01:00:21;7.82;;;2.10;;
64609;SDS011;51019;46.090;6.350;2023-08-06T01:02:51;9.65;;;2.35;;
64609;SDS011;51019;46.090;6.350;2023-08-06T01:05:21;7.82;;;2.15;;
64609;SDS011;51019;46.090;6.350;2023-08-06T01:07:51;7.10;;;2.05;;
64609;SDS011;51019;46.090;6.350;2023-08-06T01:10:37;7.45;;;2.10;;
64609;SDS011;51019;46.090;6.350;2023-08-06T01:13:16;9.38;;;2.28;;
64609;SDS011;51019;46.090;6.350;2023-08-06T01:15:50;8.20;;;2.20;;
64609;SDS011;51019;46.090;6.350;2023-08-06T01:18:24;7.80;;;1.80;;
64609;SDS011;51019;46.090;6.350;2023-08-06T01:20:53;8.30;;;2.05;;
64609;SDS011;51019;46.090;6.350;2023-08-06T01:23:20;7.35;;;1.80;;
64609;SDS011;51019;46.090;6.350;2023-08-06T01:25:52;9.30;;;2.67;;
64609;SDS011;51019;46.090;6.350;2023-08-06T01:28:29;5.20;;;1.70;;
64609;SDS011;51019;46.090;6.350;2023-08-06T01:31:04;9.68;;;2.05;;
64609;SDS011;51019;46.090;6.350;2023-08-06T01:33:37;8.10;;;2.03;;
64609;SDS011;51019;46.090;6.350;2023-08-06T01:36:11;11.73;;;2.28;;
64609;SDS011;51019;46.090;6.350;2023-08-06T01:38:40;6.63;;;1.80;;
64609;SDS011;51019;46.090;6.350;2023-08-06T01:41:07;6.68;;;1.80;;
64609;SDS011;51019;46.090;6.350;2023-08-06T01:43:35;6.53;;;1.90;;
64609;SDS011;51019;46.090;6.350;2023-08-06T01:46:05;6.75;;;1.80;;
64609;SDS011;51019;46.090;6.350;2023-08-06T01:48:32;8.13;;;1.98;;
64609;SDS011;51019;46.090;6.350;2023-08-06T01:51:00;7.30;;;2.13;;
64609;SDS011;51019;46.090;6.350;2023-08-06T01:53:29;6.53;;;1.67;;
64609;SDS011;51019;46.090;6.350;2023-08-06T01:55:57;8.18;;;1.90;;
64609;SDS011;51019;46.090;6.350;2023-08-06T01:58:26;8.85;;;2.10;;
64609;SDS011;51019;46.090;6.350;2023-08-06T02:00:53;9.63;;;2.03;;
64609;SDS011;51019;46.090;6.350;2023-08-06T02:03:21;7.55;;;1.85;;
64609;SDS011;51019;46.090;6.350;2023-08-06T02:05:48;7.13;;;1.90;;
64609;SDS011;51019;46.090;6.350;2023-08-06T02:08:16;6.30;;;1.80;;
64609;SDS011;51019;46.090;6.350;2023-08-06T02:10:46;6.68;;;1.73;;
64609;SDS011;51019;46.090;6.350;2023-08-06T02:13:13;6.05;;;1.77;;
64609;SDS011;51019;46.090;6.350;2023-08-06T02:15:43;6.78;;;1.65;;
64609;SDS011;51019;46.090;6.350;2023-08-06T02:18:12;6.22;;;1.98;;
64609;SDS011;51019;46.090;6.350;2023-08-06T02:20:40;6.72;;;1.75;;
64609;SDS011;51019;46.090;6.350;2023-08-06T02:23:08;9.25;;;1.90;;
64609;SDS011;51019;46.090;6.350;2023-08-06T02:25:37;8.00;;;2.00;;
64609;SDS011;51019;46.090;6.350;2023-08-06T02:28:06;7.43;;;1.80;;
64609;SDS011;51019;46.090;6.350;2023-08-06T02:30:37;7.07;;;1.88;;
64609;SDS011;51019;46.090;6.350;2023-08-06T02:33:05;5.60;;;1.65;;
64609;SDS011;51019;46.090;6.350;2023-08-06T02:35:34;7.60;;;1.95;;
64609;SDS011;51019;46.090;6.350;2023-08-06T02:38:02;5.05;;;1.60;;
64609;SDS011;51019;46.090;6.350;2023-08-06T02:40:29;8.98;;;1.90;;
64609;SDS011;51019;46.090;6.350;2023-08-06T02:42:56;6.47;;;1.60;;
64609;SDS011;51019;46.090;6.350;2023-08-06T02:45:25;7.18;;;1.60;;
64609;SDS011;51019;46.090;6.350;2023-08-06T02:47:52;8.10;;;1.90;;
64609;SDS011;51019;46.090;6.350;2023-08-06T02:50:19;4.60;;;1.50;;
64609;SDS011;51019;46.090;6.350;2023-08-06T02:52:49;6.05;;;1.60;;
64609;SDS011;51019;46.090;6.350;2023-08-06T02:55:16;6.38;;;1.50;;
64609;SDS011;51019;46.090;6.350;2023-08-06T02:57:43;6.95;;;1.63;;
64609;SDS011;51019;46.090;6.350;2023-08-06T03:00:10;4.88;;;1.52;;
64609;SDS011;51019;46.090;6.350;2023-08-06T03:02:39;6.40;;;1.83;;
64609;SDS011;51019;46.090;6.350;2023-08-06T03:05:06;8.18;;;1.70;;
64609;SDS011;51019;46.090;6.350;2023-08-06T03:07:34;4.35;;;1.52;;
64609;SDS011;51019;46.090;6.350;2023-08-06T03:10:02;5.55;;;1.40;;
64609;SDS011;51019;46.090;6.350;2023-08-06T03:12:29;7.25;;;1.55;;
64609;SDS011;51019;46.090;6.350;2023-08-06T03:14:56;6.13;;;1.50;;
64609;SDS011;51019;46.090;6.350;2023-08-06T03:17:23;5.20;;;1.50;;
64609;SDS011;51019;46.090;6.350;2023-08-06T03:19:52;2.83;;;1.20;;
64609;SDS011;51019;46.090;6.350;2023-08-06T03:22:19;6.38;;;1.60;;
64609;SDS011;51019;46.090;6.350;2023-08-06T03:24:49;4.68;;;1.42;;
64609;SDS011;51019;46.090;6.350;2023-08-06T03:27:17;6.15;;;1.48;;
64609;SDS011;51019;46.090;6.350;2023-08-06T03:29:44;6.97;;;1.55;;
64609;SDS011;51019;46.090;6.350;2023-08-06T03:32:11;5.18;;;1.30;;
64609;SDS011;51019;46.090;6.350;2023-08-06T03:34:37;5.03;;;1.30;;
64609;SDS011;51019;46.090;6.350;2023-08-06T03:37:07;7.03;;;1.50;;
64609;SDS011;51019;46.090;6.350;2023-08-06T03:39:34;3.75;;;1.30;;
64609;SDS011;51019;46.090;6.350;2023-08-06T03:42:01;6.47;;;1.58;;
64609;SDS011;51019;46.090;6.350;2023-08-06T03:44:28;4.88;;;1.25;;
64609;SDS011;51019;46.090;6.350;2023-08-06T03:46:56;5.03;;;1.80;;
64609;SDS011;51019;46.090;6.350;2023-08-06T03:49:22;4.32;;;1.33;;
64609;SDS011;51019;46.090;6.350;2023-08-06T03:51:50;3.33;;;1.13;;
64609;SDS011;51019;46.090;6.350;2023-08-06T03:54:19;7.32;;;1.70;;
64609;SDS011;51019;46.090;6.350;2023-08-06T03:56:45;7.47;;;1.80;;
64609;SDS011;51019;46.090;6.350;2023-08-06T03:59:13;9.35;;;1.85;;
64609;SDS011;51019;46.090;6.350;2023-08-06T04:01:40;7.25;;;1.52;;
64609;SDS011;51019;46.090;6.350;2023-08-06T04:04:07;7.85;;;1.60;;
64609;SDS011;51019;46.090;6.350;2023-08-06T04:06:34;4.55;;;1.30;;
64609;SDS011;51019;46.090;6.350;2023-08-06T04:09:01;4.80;;;1.40;;
64609;SDS011;51019;46.090;6.350;2023-08-06T04:11:30;7.60;;;1.52;;
64609;SDS011;51019;46.090;6.350;2023-08-06T04:13:57;6.03;;;1.90;;
64609;SDS011;51019;46.090;6.350;2023-08-06T04:16:23;5.88;;;1.50;;
64609;SDS011;51019;46.090;6.350;2023-08-06T04:18:51;7.95;;;1.80;;
64609;SDS011;51019;46.090;6.350;2023-08-06T04:21:20;9.52;;;1.92;;
64609;SDS011;51019;46.090;6.350;2023-08-06T04:23:47;8.18;;;1.80;;
64609;SDS011;51019;46.090;6.350;2023-08-06T04:26:14;13.07;;;2.50;;
64609;SDS011;51019;46.090;6.350;2023-08-06T04:28:43;10.57;;;2.03;;
64609;SDS011;51019;46.090;6.350;2023-08-06T04:31:10;4.82;;;1.52;;
64609;SDS011;51019;46.090;6.350;2023-08-06T04:33:37;7.93;;;1.90;;
64609;SDS011;51019;46.090;6.350;2023-08-06T04:36:04;7.93;;;1.63;;
64609;SDS011;51019;46.090;6.350;2023-08-06T04:38:31;7.82;;;1.92;;
64609;SDS011;51019;46.090;6.350;2023-08-06T04:40:58;9.68;;;1.80;;
64609;SDS011;51019;46.090;6.350;2023-08-06T04:43:25;10.05;;;2.08;;
64609;SDS011;51019;46.090;6.350;2023-08-06T04:45:54;12.77;;;2.17;;
64609;SDS011;51019;46.090;6.350;2023-08-06T04:48:21;8.98;;;1.85;;
64609;SDS011;51019;46.090;6.350;2023-08-06T04:50:49;14.18;;;2.95;;
64609;SDS011;51019;46.090;6.350;2023-08-06T04:53:16;13.95;;;2.03;;
64609;SDS011;51019;46.090;6.350;2023-08-06T04:55:43;7.25;;;1.73;;
64609;SDS011;51019;46.090;6.350;2023-08-06T04:58:11;13.90;;;2.10;;
64609;SDS011;51019;46.090;6.350;2023-08-06T05:00:39;11.88;;;1.98;;
64609;SDS011;51019;46.090;6.350;2023-08-06T05:03:11;12.75;;;2.08;;
64609;SDS011;51019;46.090;6.350;2023-08-06T05:05:39;16.45;;;2.25;;
64609;SDS011;51019;46.090;6.350;2023-08-06T05:08:07;11.30;;;2.22;;
64609;SDS011;51019;46.090;6.350;2023-08-06T05:10:41;14.82;;;2.40;;
64609;SDS011;51019;46.090;6.350;2023-08-06T05:13:09;13.93;;;2.40;;
64609;SDS011;51019;46.090;6.350;2023-08-06T05:15:38;17.52;;;2.08;;
64609;SDS011;51019;46.090;6.350;2023-08-06T05:18:07;11.10;;;2.22;;
64609;SDS011;51019;46.090;6.350;2023-08-06T05:20:37;12.32;;;2.47;;
64609;SDS011;51019;46.090;6.350;2023-08-06T05:23:06;14.95;;;2.58;;
64609;SDS011;51019;46.090;6.350;2023-08-06T05:25:34;16.02;;;2.38;;
64609;SDS011;51019;46.090;6.350;2023-08-06T05:28:02;15.73;;;2.40;;
64609;SDS011;51019;46.090;6.350;2023-08-06T05:30:30;13.38;;;2.38;;
64609;SDS011;51019;46.090;6.350;2023-08-06T05:32:57;9.45;;;2.10;;
64609;SDS011;51019;46.090;6.350;2023-08-06T05:35:24;14.88;;;2.50;;
64609;SDS011;51019;46.090;6.350;2023-08-06T05:37:57;11.55;;;2.78;;
64609;SDS011;51019;46.090;6.350;2023-08-06T05:40:27;10.27;;;2.13;;
64609;SDS011;51019;46.090;6.350;2023-08-06T05:42:55;11.38;;;2.17;;
64609;SDS011;51019;46.090;6.350;2023-08-06T05:45:22;12.90;;;2.45;;
64609;SDS011;51019;46.090;6.350;2023-08-06T05:47:50;16.25;;;2.53;;
64609;SDS011;51019;46.090;6.350;2023-08-06T05:50:19;13.50;;;2.78;;
64609;SDS011;51019;46.090;6.350;2023-08-06T05:52:51;10.38;;;2.03;;
64609;SDS011;51019;46.090;6.350;2023-08-06T05:55:20;8.52;;;1.70;;
64609;SDS011;51019;46.090;6.350;2023-08-06T05:57:47;14.30;;;2.00;;
64609;SDS011;51019;46.090;6.350;2023-08-06T06:00:15;13.85;;;1.80;;
64609;SDS011;51019;46.090;6.350;2023-08-06T06:02:43;9.77;;;1.85;;
64609;SDS011;51019;46.090;6.350;2023-08-06T06:05:10;12.65;;;2.28;;
64609;SDS011;51019;46.090;6.350;2023-08-06T06:07:38;13.27;;;1.73;;
64609;SDS011;51019;46.090;6.350;2023-08-06T06:10:06;12.05;;;1.88;;
64609;SDS011;51019;46.090;6.350;2023-08-06T06:12:37;10.07;;;1.73;;
64609;SDS011;51019;46.090;6.350;2023-08-06T06:15:06;8.95;;;1.60;;
64609;SDS011;51019;46.090;6.350;2023-08-06T06:17:33;10.52;;;2.08;;
64609;SDS011;51019;46.090;6.350;2023-08-06T06:20:00;9.82;;;1.50;;
64609;SDS011;51019;46.090;6.350;2023-08-06T06:22:29;7.40;;;1.70;;
64609;SDS011;51019;46.090;6.350;2023-08-06T06:24:57;5.85;;;1.58;;
64609;SDS011;51019;46.090;6.350;2023-08-06T06:27:25;7.05;;;1.27;;
64609;SDS011;51019;46.090;6.350;2023-08-06T06:29:54;9.35;;;1.42;;
64609;SDS011;51019;46.090;6.350;2023-08-06T06:32:22;9.20;;;1.98;;
64609;SDS011;51019;46.090;6.350;2023-08-06T06:34:49;9.25;;;1.48;;
64609;SDS011;51019;46.090;6.350;2023-08-06T06:37:17;8.95;;;1.60;;
64609;SDS011;51019;46.090;6.350;2023-08-06T06:39:44;4.72;;;1.25;;
64609;SDS011;51019;46.090;6.350;2023-08-06T06:42:11;8.52;;;1.67;;
64609;SDS011;51019;46.090;6.350;2023-08-06T06:44:40;8.93;;;1.58;;
64609;SDS011;51019;46.090;6.350;2023-08-06T06:47:09;9.15;;;1.67;;
64609;SDS011;51019;46.090;6.350;2023-08-06T06:49:37;12.65;;;1.50;;
64609;SDS011;51019;46.090;6.350;2023-08-06T06:52:04;6.80;;;1.38;;
64609;SDS011;51019;46.090;6.350;2023-08-06T06:54:32;6.95;;;1.35;;
64609;SDS011;51019;46.090;6.350;2023-08-06T06:57:00;6.57;;;1.55;;
64609;SDS011;51019;46.090;6.350;2023-08-06T06:59:27;9.40;;;1.60;;
64609;SDS011;51019;46.090;6.350;2023-08-06T07:01:54;8.65;;;1.60;;
64609;SDS011;51019;46.090;6.350;2023-08-06T07:04:24;4.72;;;1.10;;
64609;SDS011;51019;46.090;6.350;2023-08-06T07:06:51;5.75;;;1.30;;
64609;SDS011;51019;46.090;6.350;2023-08-06T07:09:18;8.25;;;1.52;;
64609;SDS011;51019;46.090;6.350;2023-08-06T07:11:46;6.78;;;1.30;;
64609;SDS011;51019;46.090;6.350;2023-08-06T07:14:13;5.78;;;1.30;;
64609;SDS011;51019;46.090;6.350;2023-08-06T07:16:41;3.65;;;1.00;;
64609;SDS011;51019;46.090;6.350;2023-08-06T07:19:07;5.95;;;1.23;;
64609;SDS011;51019;46.090;6.350;2023-08-06T07:21:36;7.15;;;1.75;;
64609;SDS011;51019;46.090;6.350;2023-08-06T07:24:03;6.43;;;1.20;;
64609;SDS011;51019;46.090;6.350;2023-08-06T07:26:31;6.80;;;1.30;;
64609;SDS011;51019;46.090;6.350;2023-08-06T07:28:58;9.13;;;1.30;;
64609;SDS011;51019;46.090;6.350;2023-08-06T07:31:24;5.40;;;1.10;;
64609;SDS011;51019;46.090;6.350;2023-08-06T07:33:52;7.18;;;1.30;;
64609;SDS011;51019;46.090;6.350;2023-08-06T07:36:19;6.70;;;1.55;;
64609;SDS011;51019;46.090;6.350;2023-08-06T07:38:48;7.13;;;0.93;;
64609;SDS011;51019;46.090;6.350;2023-08-06T07:41:20;5.50;;;1.20;;
64609;SDS011;51019;46.090;6.350;2023-08-06T07:43:47;9.65;;;1.38;;
64609;SDS011;51019;46.090;6.350;2023-08-06T07:46:14;4.68;;;1.42;;
64609;SDS011;51019;46.090;6.350;2023-08-06T07:48:41;5.63;;;1.10;;
64609;SDS011;51019;46.090;6.350;2023-08-06T07:51:09;4.50;;;1.10;;
64609;SDS011;51019;46.090;6.350;2023-08-06T07:53:36;8.63;;;1.25;;
64609;SDS011;51019;46.090;6.350;2023-08-06T07:56:05;6.50;;;1.00;;
64609;SDS011;51019;46.090;6.350;2023-08-06T07:58:32;3.92;;;0.80;;
64609;SDS011;51019;46.090;6.350;2023-08-06T08:00:59;16.70;;;1.83;;
64609;SDS011;51019;46.090;6.350;2023-08-06T08:03:26;7.38;;;1.55;;
64609;SDS011;51019;46.090;6.350;2023-08-06T08:05:54;9.02;;;1.65;;
64609;SDS011;51019;46.090;6.350;2023-08-06T08:08:24;6.15;;;1.33;;
64609;SDS011;51019;46.090;6.350;2023-08-06T08:10:51;4.82;;;1.20;;
64609;SDS011;51019;46.090;6.350;2023-08-06T08:13:22;6.43;;;1.27;;
64609;SDS011;51019;46.090;6.350;2023-08-06T08:15:49;6.93;;;1.00;;
64609;SDS011;51019;46.090;6.350;2023-08-06T08:18:16;4.38;;;1.38;;
64609;SDS011;51019;46.090;6.350;2023-08-06T08:20:43;3.13;;;0.85;;
64609;SDS011;51019;46.090;6.350;2023-08-06T08:23:10;5.00;;;1.00;;
64609;SDS011;51019;46.090;6.350;2023-08-06T08:25:37;2.60;;;0.95;;
64609;SDS011;51019;46.090;6.350;2023-08-06T08:28:04;5.32;;;1.00;;
64609;SDS011;51019;46.090;6.350;2023-08-06T08:30:34;3.55;;;1.10;;
64609;SDS011;51019;46.090;6.350;2023-08-06T08:33:01;6.03;;;1.60;;
64609;SDS011;51019;46.090;6.350;2023-08-06T08:35:29;5.90;;;1.13;;
64609;SDS011;51019;46.090;6.350;2023-08-06T08:38:06;3.70;;;0.93;;
64609;SDS011;51019;46.090;6.350;2023-08-06T08:40:34;3.22;;;1.00;;
64609;SDS011;51019;46.090;6.350;2023-08-06T08:43:08;3.92;;;1.05;;
64609;SDS011;51019;46.090;6.350;2023-08-06T08:45:39;5.10;;;1.10;;
64609;SDS011;51019;46.090;6.350;2023-08-06T08:48:10;2.70;;;0.90;;
64609;SDS011;51019;46.090;6.350;2023-08-06T08:50:40;2.00;;;0.70;;
64609;SDS011;51019;46.090;6.350;2023-08-06T08:53:10;5.45;;;1.35;;
64609;SDS011;51019;46.090;6.350;2023-08-06T08:55:39;3.20;;;0.90;;
64609;SDS011;51019;46.090;6.350;2023-08-06T08:58:11;2.33;;;0.75;;
64609;SDS011;51019;46.090;6.350;2023-08-06T09:00:41;3.50;;;1.00;;
64609;SDS011;51019;46.090;6.350;2023-08-06T09:03:10;5.55;;;0.85;;
64609;SDS011;51019;46.090;6.350;2023-08-06T09:05:45;3.22;;;0.90;;
64609;SDS011;51019;46.090;6.350;2023-08-06T09:08:17;2.63;;;0.90;;
64609;SDS011;51019;46.090;6.350;2023-08-06T09:10:57;2.05;;;0.90;;
64609;SDS011;51019;46.090;6.350;2023-08-06T09:13:24;5.43;;;0.85;;
64609;SDS011;51019;46.090;6.350;2023-08-06T09:15:54;2.92;;;0.85;;
64609;SDS011;51019;46.090;6.350;2023-08-06T09:18:24;1.30;;;0.70;;
64609;SDS011;51019;46.090;6.350;2023-08-06T09:20:53;4.43;;;0.90;;
64609;SDS011;51019;46.090;6.350;2023-08-06T09:23:30;2.85;;;0.93;;
64609;SDS011;51019;46.090;6.350;2023-08-06T09:26:00;3.80;;;0.90;;
64609;SDS011;51019;46.090;6.350;2023-08-06T09:28:36;1.65;;;0.63;;
64609;SDS011;51019;46.090;6.350;2023-08-06T09:31:06;3.85;;;0.98;;
64609;SDS011;51019;46.090;6.350;2023-08-06T09:33:35;4.18;;;1.00;;
64609;SDS011;51019;46.090;6.350;2023-08-06T09:36:07;2.35;;;0.77;;
64609;SDS011;51019;46.090;6.350;2023-08-06T09:38:39;3.17;;;0.98;;
64609;SDS011;51019;46.090;6.350;2023-08-06T09:41:06;2.88;;;0.88;;
64609;SDS011;51019;46.090;6.350;2023-08-06T09:43:42;1.35;;;0.70;;
64609;SDS011;51019;46.090;6.350;2023-08-06T09:46:14;2.42;;;0.70;;
64609;SDS011;51019;46.090;6.350;2023-08-06T09:48:47;1.02;;;0.60;;
64609;SDS011;51019;46.090;6.350;2023-08-06T09:51:15;4.00;;;0.98;;
64609;SDS011;51019;46.090;6.350;2023-08-06T09:53:44;3.17;;;0.85;;
64609;SDS011;51019;46.090;6.350;2023-08-06T09:56:15;1.42;;;0.75;;
64609;SDS011;51019;46.090;6.350;2023-08-06T09:58:47;2.25;;;0.70;;
64609;SDS011;51019;46.090;6.350;2023-08-06T10:01:19;3.22;;;0.77;;
64609;SDS011;51019;46.090;6.350;2023-08-06T10:03:50;4.35;;;1.02;;
64609;SDS011;51019;46.090;6.350;2023-08-06T10:06:21;3.92;;;1.05;;
64609;SDS011;51019;46.090;6.350;2023-08-06T10:08:53;0.93;;;0.63;;
64609;SDS011;51019;46.090;6.350;2023-08-06T10:11:23;3.53;;;0.90;;
64609;SDS011;51019;46.090;6.350;2023-08-06T10:13:52;5.30;;;0.98;;
64609;SDS011;51019;46.090;6.350;2023-08-06T10:16:24;1.55;;;0.70;;
64609;SDS011;51019;46.090;6.350;2023-08-06T10:18:51;2.10;;;0.90;;
64609;SDS011;51019;46.090;6.350;2023-08-06T10:21:20;0.60;;;0.57;;
64609;SDS011;51019;46.090;6.350;2023-08-06T10:23:53;5.40;;;1.00;;
64609;SDS011;51019;46.090;6.350;2023-08-06T10:26:21;5.85;;;1.05;;
64609;SDS011;51019;46.090;6.350;2023-08-06T10:28:52;2.75;;;0.85;;
64609;SDS011;51019;46.090;6.350;2023-08-06T10:34:32;2.58;;;0.90;;
64609;SDS011;51019;46.090;6.350;2023-08-06T10:37:20;2.75;;;0.80;;
64609;SDS011;51019;46.090;6.350;2023-08-06T10:39:49;2.20;;;0.70;;
64609;SDS011;51019;46.090;6.350;2023-08-06T10:42:20;1.15;;;0.63;;
64609;SDS011;51019;46.090;6.350;2023-08-06T10:47:46;3.13;;;0.95;;
64609;SDS011;51019;46.090;6.350;2023-08-06T10:50:14;1.85;;;0.70;;
64609;SDS011;51019;46.090;6.350;2023-08-06T10:52:43;6.03;;;1.33;;
64609;SDS011;51019;46.090;6.350;2023-08-06T10:55:11;1.50;;;0.70;;
64609;SDS011;51019;46.090;6.350;2023-08-06T10:57:41;3.65;;;1.15;;
64609;SDS011;51019;46.090;6.350;2023-08-06T11:00:09;12.90;;;3.60;;
64609;SDS011;51019;46.090;6.350;2023-08-06T11:02:39;1.92;;;0.60;;
64609;SDS011;51019;46.090;6.350;2023-08-06T11:05:13;2.57;;;1.00;;
64609;SDS011;51019;46.090;6.350;2023-08-06T11:07:40;4.45;;;1.42;;
64609;SDS011;51019;46.090;6.350;2023-08-06T11:10:10;9.88;;;3.08;;
64609;SDS011;51019;46.090;6.350;2023-08-06T11:12:39;12.85;;;3.30;;
64609;SDS011;51019;46.090;6.350;2023-08-06T11:15:08;11.02;;;2.65;;
64609;SDS011;51019;46.090;6.350;2023-08-06T11:17:39;3.35;;;1.08;;
64609;SDS011;51019;46.090;6.350;2023-08-06T11:20:09;3.85;;;1.08;;
64609;SDS011;51019;46.090;6.350;2023-08-06T11:22:38;4.93;;;1.10;;
64609;SDS011;51019;46.090;6.350;2023-08-06T11:25:06;4.50;;;1.42;;
64609;SDS011;51019;46.090;6.350;2023-08-06T11:27:35;2.85;;;1.00;;
64609;SDS011;51019;46.090;6.350;2023-08-06T11:30:09;5.90;;;1.25;;
64609;SDS011;51019;46.090;6.350;2023-08-06T11:32:44;4.15;;;0.93;;
64609;SDS011;51019;46.090;6.350;2023-08-06T11:35:12;2.88;;;0.80;;
64609;SDS011;51019;46.090;6.350;2023-08-06T11:37:45;4.05;;;1.00;;
64609;SDS011;51019;46.090;6.350;2023-08-06T11:40:14;1.90;;;0.90;;
64609;SDS011;51019;46.090;6.350;2023-08-06T11:42:42;2.38;;;0.77;;
64609;SDS011;51019;46.090;6.350;2023-08-06T11:45:10;2.88;;;0.80;;
64609;SDS011;51019;46.090;6.350;2023-08-06T11:47:41;2.05;;;0.80;;
64609;SDS011;51019;46.090;6.350;2023-08-06T11:50:09;2.10;;;0.80;;
64609;SDS011;51019;46.090;6.350;2023-08-06T11:52:52;2.63;;;0.82;;
64609;SDS011;51019;46.090;6.350;2023-08-06T11:55:23;0.88;;;0.50;;
64609;SDS011;51019;46.090;6.350;2023-08-06T11:57:51;1.33;;;0.63;;
64609;SDS011;51019;46.090;6.350;2023-08-06T12:00:19;0.93;;;0.55;;
64609;SDS011;51019;46.090;6.350;2023-08-06T12:02:54;0.50;;;0.50;;
64609;SDS011;51019;46.090;6.350;2023-08-06T12:05:30;1.73;;;0.57;;
64609;SDS011;51019;46.090;6.350;2023-08-06T12:08:02;0.50;;;0.50;;
64609;SDS011;51019;46.090;6.350;2023-08-06T12:10:30;0.52;;;0.52;;
64609;SDS011;51019;46.090;6.350;2023-08-06T12:12:59;0.50;;;0.50;;
64609;SDS011;51019;46.090;6.350;2023-08-06T12:15:27;1.50;;;0.70;;
64609;SDS011;51019;46.090;6.350;2023-08-06T12:17:55;0.90;;;0.68;;
64609;SDS011;51019;46.090;6.350;2023-08-06T12:20:26;1.70;;;0.70;;
64609;SDS011;51019;46.090;6.350;2023-08-06T12:22:53;2.67;;;0.70;;
64609;SDS011;51019;46.090;6.350;2023-08-06T12:25:24;1.88;;;0.70;;
64609;SDS011;51019;46.090;6.350;2023-08-06T12:27:52;2.58;;;0.77;;
64609;SDS011;51019;46.090;6.350;2023-08-06T12:30:19;3.08;;;0.80;;
64609;SDS011;51019;46.090;6.350;2023-08-06T12:32:46;1.40;;;0.73;;
64609;SDS011;51019;46.090;6.350;2023-08-06T12:35:14;3.50;;;0.70;;
64609;SDS011;51019;46.090;6.350;2023-08-06T12:37:41;2.03;;;0.70;;
64609;SDS011;51019;46.090;6.350;2023-08-06T12:40:09;0.82;;;0.80;;
64609;SDS011;51019;46.090;6.350;2023-08-06T12:42:44;2.78;;;0.95;;
64609;SDS011;51019;46.090;6.350;2023-08-06T12:45:11;1.48;;;0.70;;
64609;SDS011;51019;46.090;6.350;2023-08-06T12:47:39;3.50;;;0.85;;
64609;SDS011;51019;46.090;6.350;2023-08-06T12:50:08;1.27;;;0.70;;
64609;SDS011;51019;46.090;6.350;2023-08-06T12:52:35;3.15;;;0.80;;
64609;SDS011;51019;46.090;6.350;2023-08-06T12:55:05;3.35;;;1.02;;
64609;SDS011;51019;46.090;6.350;2023-08-06T12:57:38;3.92;;;0.80;;
64609;SDS011;51019;46.090;6.350;2023-08-06T13:00:09;2.75;;;0.82;;
64609;SDS011;51019;46.090;6.350;2023-08-06T13:02:36;2.90;;;0.95;;
64609;SDS011;51019;46.090;6.350;2023-08-06T13:05:04;1.33;;;0.82;;
64609;SDS011;51019;46.090;6.350;2023-08-06T13:07:34;4.85;;;1.20;;
64609;SDS011;51019;46.090;6.350;2023-08-06T13:10:01;1.20;;;0.90;;
64609;SDS011;51019;46.090;6.350;2023-08-06T13:12:29;1.20;;;0.70;;
64609;SDS011;51019;46.090;6.350;2023-08-06T13:14:58;1.20;;;0.90;;
64609;SDS011;51019;46.090;6.350;2023-08-06T13:17:27;1.90;;;0.70;;
64609;SDS011;51019;46.090;6.350;2023-08-06T13:19:55;2.17;;;0.80;;
64609;SDS011;51019;46.090;6.350;2023-08-06T13:22:22;4.72;;;1.90;;
64609;SDS011;51019;46.090;6.350;2023-08-06T13:24:52;4.15;;;0.90;;
64609;SDS011;51019;46.090;6.350;2023-08-06T13:27:20;2.42;;;0.90;;
64609;SDS011;51019;46.090;6.350;2023-08-06T13:29:48;0.70;;;0.70;;
64609;SDS011;51019;46.090;6.350;2023-08-06T13:32:16;2.83;;;0.70;;
64609;SDS011;51019;46.090;6.350;2023-08-06T13:34:45;1.20;;;0.80;;
64609;SDS011;51019;46.090;6.350;2023-08-06T13:37:12;4.15;;;1.00;;
64609;SDS011;51019;46.090;6.350;2023-08-06T13:39:40;1.13;;;0.60;;
64609;SDS011;51019;46.090;6.350;2023-08-06T13:42:08;3.42;;;1.02;;
64609;SDS011;51019;46.090;6.350;2023-08-06T13:44:35;3.70;;;0.93;;
64609;SDS011;51019;46.090;6.350;2023-08-06T13:47:03;1.08;;;0.70;;
64609;SDS011;51019;46.090;6.350;2023-08-06T13:49:31;2.17;;;0.90;;
64609;SDS011;51019;46.090;6.350;2023-08-06T13:52:00;0.90;;;0.80;;
64609;SDS011;51019;46.090;6.350;2023-08-06T13:54:28;2.13;;;1.00;;
64609;SDS011;51019;46.090;6.350;2023-08-06T13:56:55;2.97;;;0.98;;
64609;SDS011;51019;46.090;6.350;2023-08-06T13:59:22;2.45;;;0.75;;
64609;SDS011;51019;46.090;6.350;2023-08-06T14:01:49;1.92;;;0.80;;
64609;SDS011;51019;46.090;6.350;2023-08-06T14:04:18;3.92;;;0.98;;
64609;SDS011;51019;46.090;6.350;2023-08-06T14:06:46;2.00;;;0.80;;
64609;SDS011;51019;46.090;6.350;2023-08-06T14:09:15;3.58;;;1.00;;
64609;SDS011;51019;46.090;6.350;2023-08-06T14:11:43;3.67;;;1.02;;
64609;SDS011;51019;46.090;6.350;2023-08-06T14:14:14;4.20;;;1.10;;
64609;SDS011;51019;46.090;6.350;2023-08-06T14:16:47;3.10;;;0.80;;
64609;SDS011;51019;46.090;6.350;2023-08-06T14:19:15;1.27;;;0.65;;
64609;SDS011;51019;46.090;6.350;2023-08-06T14:21:43;1.05;;;0.60;;
64609;SDS011;51019;46.090;6.350;2023-08-06T14:24:11;0.68;;;0.68;;
64609;SDS011;51019;46.090;6.350;2023-08-06T14:26:39;1.27;;;0.68;;
64609;SDS011;51019;46.090;6.350;2023-08-06T14:29:07;2.95;;;0.90;;
64609;SDS011;51019;46.090;6.350;2023-08-06T14:31:34;1.65;;;0.70;;
64609;SDS011;51019;46.090;6.350;2023-08-06T14:34:01;4.90;;;0.80;;
64609;SDS011;51019;46.090;6.350;2023-08-06T14:36:31;6.47;;;1.05;;
64609;SDS011;51019;46.090;6.350;2023-08-06T14:38:59;0.68;;;0.65;;
64609;SDS011;51019;46.090;6.350;2023-08-06T14:41:28;2.67;;;0.80;;
64609;SDS011;51019;46.090;6.350;2023-08-06T14:43:57;1.42;;;0.80;;
64609;SDS011;51019;46.090;6.350;2023-08-06T14:46:24;1.52;;;0.82;;
64609;SDS011;51019;46.090;6.350;2023-08-06T14:48:52;1.45;;;0.77;;
64609;SDS011;51019;46.090;6.350;2023-08-06T14:51:23;0.68;;;0.60;;
64609;SDS011;51019;46.090;6.350;2023-08-06T14:53:50;2.20;;;0.93;;
64609;SDS011;51019;46.090;6.350;2023-08-06T14:56:26;2.45;;;0.82;;
64609;SDS011;51019;46.090;6.350;2023-08-06T14:58:54;2.08;;;0.80;;
64609;SDS011;51019;46.090;6.350;2023-08-06T15:01:23;2.17;;;0.82;;